Ford Heights, Illinois
Current Conditions -  °F | °C
As of 12:35 AM on Tuesday 21 Oct 2014 (Local Time) from KIGQ Reporting Station
Broken Clouds Broken Clouds  
Wind Chill: 51°   Ceiling: 5000
Heat Index: 51°   Visibility: 10mi
Dew Point: 44°   Wind: 7mph
Humidity: 76%   Direction: 350°N
Pressure: 29.99"   Gusts: NA
Location:  41.5054°N, 87.5907°W
Report Text: KIGQ 210535Z AUTO 35006KT 10SM BKN050 11/07 A2999 RMK AO2 T01080068
Loading
Personal Weather Stations






























Interactive Weather Map New forecast layout! Learn more

10-Day Weather Forecast

Advertisements
Track Severe Weather on mobile